Time;durP1;ratioP1;P1;durP2;ratioP2;P2;SDS_P1;SDS_P2;PMS_P1;PMS_P2;Temp;Humidity;BMP_temperature;BMP_pressure;BME280_temperature;BME280_humidity;BME280_pressure;Samples;Min_cycle;Max_cycle;Signal;HPM_P1;HPM_P2
2022/12/20 00:00:50;;;;;;;10.38;5.93;;;9.00;99.90;;;;;;5067807;28;20142;-76
2022/12/20 00:03:17;;;;;;;8.38;5.68;;;9.00;99.90;;;;;;5087011;28;20036;-76
2022/12/20 00:05:43;;;;;;;7.95;6.10;;;9.00;99.90;;;;;;5069991;28;20051;-76
2022/12/20 00:08:09;;;;;;;9.25;5.95;;;9.00;99.90;;;;;;5066657;28;20044;-76
2022/12/20 00:10:36;;;;;;;8.07;5.80;;;9.00;99.90;;;;;;5069802;28;20051;-75
2022/12/20 00:13:02;;;;;;;10.07;5.85;;;9.00;99.90;;;;;;5086389;28;20048;-76
2022/12/20 00:15:28;;;;;;;8.23;5.93;;;9.00;99.90;;;;;;5085047;28;20048;-76
2022/12/20 00:17:53;;;;;;;9.32;5.70;;;9.00;99.90;;;;;;5068218;28;20043;-76
2022/12/20 00:20:19;;;;;;;7.30;5.30;;;9.00;99.90;;;;;;5068216;28;20122;-76
2022/12/20 00:22:45;;;;;;;7.40;5.07;;;9.00;99.90;;;;;;5065615;28;20123;-77
2022/12/20 00:25:10;;;;;;;6.47;5.38;;;9.00;99.90;;;;;;5085132;28;20052;-76
2022/12/20 00:27:36;;;;;;;10.00;5.45;;;9.00;99.90;;;;;;5067750;28;20040;-76
2022/12/20 00:30:02;;;;;;;8.38;4.90;;;9.00;99.90;;;;;;5098663;28;20068;-76
2022/12/20 00:32:28;;;;;;;6.32;5.10;;;9.00;99.90;;;;;;5084629;28;20479;-77
2022/12/20 00:34:53;;;;;;;10.27;6.35;;;9.00;99.90;;;;;;5084419;28;20039;-76
2022/12/20 00:37:19;;;;;;;12.82;8.13;;;9.00;99.90;;;;;;5084593;28;20044;-76
2022/12/20 00:39:45;;;;;;;18.80;10.45;;;8.90;99.90;;;;;;5087820;28;20489;-76
2022/12/20 00:42:10;;;;;;;8.63;5.82;;;9.00;99.90;;;;;;5084209;28;20076;-75
2022/12/20 00:44:36;;;;;;;7.30;5.43;;;9.00;99.90;;;;;;5065618;28;20150;-76
2022/12/20 00:47:01;;;;;;;6.05;4.80;;;9.10;99.90;;;;;;5085591;28;20051;-76
2022/12/20 00:49:27;;;;;;;7.25;5.40;;;9.00;99.90;;;;;;5068062;28;20056;-76
2022/12/20 00:51:53;;;;;;;8.73;5.20;;;9.10;99.90;;;;;;5066560;28;20080;-76
2022/12/20 00:54:18;;;;;;;9.40;5.53;;;9.20;99.90;;;;;;5065661;28;20094;-76
2022/12/20 00:56:44;;;;;;;8.82;5.20;;;9.10;99.90;;;;;;5067845;28;20547;-76
2022/12/20 00:59:09;;;;;;;7.65;5.00;;;9.20;99.90;;;;;;5063882;28;20559;-76
2022/12/20 01:01:35;;;;;;;6.07;4.80;;;9.20;99.90;;;;;;5079285;28;20135;-77
2022/12/20 01:04:01;;;;;;;6.95;4.97;;;9.20;99.90;;;;;;5085750;28;20123;-77
2022/12/20 01:06:28;;;;;;;7.50;5.30;;;9.20;99.90;;;;;;5070810;28;20062;-77
2022/12/20 01:08:55;;;;;;;7.70;5.03;;;9.20;99.90;;;;;;5072849;28;20047;-76
2022/12/20 01:11:26;;;;;;;7.22;4.80;;;9.20;99.90;;;;;;5068655;28;20495;-76
2022/12/20 01:13:54;;;;;;;6.90;5.05;;;9.30;99.90;;;;;;5071885;28;20036;-77
2022/12/20 01:16:40;;;;;;;6.60;5.00;;;9.20;99.90;;;;;;5102179;28;20135;-76
2022/12/20 01:19:07;;;;;;;6.72;5.00;;;9.20;99.90;;;;;;5090799;28;20051;-76
2022/12/20 01:21:33;;;;;;;;;;;9.20;99.90;;;;;;5086005;28;20044;-76
2022/12/20 01:23:58;;;;;;;7.07;5.00;;;9.20;99.90;;;;;;5102813;28;20381;-76
2022/12/20 01:26:27;;;;;;;6.28;4.60;;;9.20;99.90;;;;;;5072616;28;20044;-76
2022/12/20 01:28:56;;;;;;;7.03;4.47;;;9.20;99.90;;;;;;5066437;28;20113;-76
2022/12/20 01:31:22;;;;;;;6.85;4.47;;;9.30;99.90;;;;;;5068538;28;20177;-76
2022/12/20 01:33:49;;;;;;;6.82;4.22;;;9.30;99.90;;;;;;5069991;28;20044;-76
2022/12/20 01:36:18;;;;;;;8.05;4.80;;;9.30;99.90;;;;;;5087399;28;20139;-76
2022/12/20 01:38:43;;;;;;;7.90;5.20;;;9.20;99.90;;;;;;5070375;28;21819;-76
2022/12/20 01:41:15;;;;;;;6.35;4.65;;;9.30;99.90;;;;;;5084346;28;20032;-76
2022/12/20 01:43:55;;;;;;;8.05;4.70;;;9.30;99.90;;;;;;5070875;28;20050;-76
2022/12/20 01:46:23;;;;;;;6.82;4.70;;;9.30;99.90;;;;;;5070941;28;20740;-76
2022/12/20 01:49:10;;;;;;;5.90;4.50;;;9.20;99.90;;;;;;5071792;28;20095;-77
2022/12/20 01:51:47;;;;;;;8.00;4.70;;;9.30;99.90;;;;;;5087540;28;20044;-76
2022/12/20 01:54:17;;;;;;;6.15;4.10;;;9.20;99.90;;;;;;5069296;28;20044;-77
2022/12/20 01:56:48;;;;;;;5.97;4.22;;;9.30;99.90;;;;;;5068012;28;20441;-76
2022/12/20 01:59:15;;;;;;;5.28;4.30;;;9.30;99.90;;;;;;5086262;28;20502;-76
2022/12/20 02:01:42;;;;;;;5.80;3.97;;;9.40;99.90;;;;;;5086222;28;20403;-76
2022/12/20 02:04:09;;;;;;;6.50;4.57;;;9.40;99.90;;;;;;5104852;27;20044;-76
2022/12/20 02:06:35;;;;;;;4.68;4.00;;;9.40;99.90;;;;;;5088119;28;20102;-75
2022/12/20 02:09:03;;;;;;;5.90;4.07;;;9.40;99.90;;;;;;5103897;28;20169;-76
2022/12/20 02:11:40;;;;;;;7.70;4.50;;;9.40;99.90;;;;;;5064350;28;20601;-76
2022/12/20 02:14:26;;;;;;;6.05;4.38;;;9.40;99.90;;;;;;5090485;28;20040;-76
2022/12/20 02:16:57;;;;;;;5.78;4.05;;;9.50;99.90;;;;;;5084354;28;20048;-76
2022/12/20 02:19:29;;;;;;;6.72;4.43;;;9.50;99.90;;;;;;5085559;28;20047;-76
2022/12/20 02:22:04;;;;;;;9.82;4.05;;;9.50;99.90;;;;;;5068322;28;20606;-76
2022/12/20 02:24:59;;;;;;;7.45;4.25;;;9.50;99.90;;;;;;5072469;28;20051;-76
2022/12/20 02:27:31;;;;;;;5.30;3.90;;;9.50;99.90;;;;;;5063560;28;20040;-76
2022/12/20 02:30:04;;;;;;;6.15;3.80;;;9.50;99.90;;;;;;5065203;28;20077;-76
2022/12/20 02:32:41;;;;;;;4.65;3.80;;;9.50;99.90;;;;;;5062802;28;20044;-76
2022/12/20 02:35:09;;;;;;;8.32;4.38;;;9.60;99.90;;;;;;5069613;28;20553;-76
2022/12/20 02:37:35;;;;;;;5.93;3.88;;;9.60;99.90;;;;;;5066344;28;20059;-77
2022/12/20 02:40:03;;;;;;;5.97;3.92;;;9.50;99.90;;;;;;5087239;28;20079;-77
2022/12/20 02:42:31;;;;;;;9.15;4.00;;;9.60;99.90;;;;;;5066318;28;20097;-76
2022/12/20 02:45:14;;;;;;;8.45;4.22;;;9.60;99.90;;;;;;5068986;28;20562;-76
2022/12/20 02:48:11;;;;;;;8.40;4.35;;;9.60;99.90;;;;;;5067784;28;20048;-77
2022/12/20 02:50:46;;;;;;;6.90;3.75;;;9.60;99.90;;;;;;5060319;28;20399;-77
2022/12/20 02:53:13;;;;;;;8.60;4.63;;;9.60;99.90;;;;;;5097856;28;20049;-76
2022/12/20 02:55:39;;;;;;;7.60;4.30;;;9.70;99.90;;;;;;5064190;28;20048;-77
2022/12/20 02:58:12;;;;;;;6.32;3.80;;;9.70;99.90;;;;;;5065381;28;20123;-77
2022/12/20 03:00:43;;;;;;;7.38;4.10;;;9.70;99.90;;;;;;5064346;28;20045;-76
2022/12/20 03:03:22;;;;;;;7.95;4.60;;;9.70;99.90;;;;;;5067094;28;20072;-76
2022/12/20 03:05:51;;;;;;;6.60;4.05;;;9.70;99.90;;;;;;5064480;28;20040;-76
2022/12/20 03:08:17;;;;;;;5.72;4.03;;;9.70;99.90;;;;;;5063409;28;20085;-76
2022/12/20 03:10:43;;;;;;;8.32;3.88;;;9.70;99.90;;;;;;5062013;28;20056;-75
2022/12/20 03:13:09;;;;;;;8.00;3.97;;;9.70;99.90;;;;;;5064586;28;20040;-76
2022/12/20 03:15:34;;;;;;;7.63;4.70;;;9.70;99.90;;;;;;5064855;28;20063;-76
2022/12/20 03:18:00;;;;;;;5.45;4.13;;;9.60;99.90;;;;;;5064984;28;20495;-76
2022/12/20 03:20:26;;;;;;;5.78;4.10;;;9.70;99.90;;;;;;5067617;28;20491;-76
2022/12/20 03:22:52;;;;;;;6.63;4.20;;;9.60;99.90;;;;;;5067957;28;20075;-76
2022/12/20 03:25:18;;;;;;;6.80;4.55;;;9.60;99.90;;;;;;5064744;28;20051;-76
2022/12/20 03:27:43;;;;;;;8.35;4.53;;;9.60;99.90;;;;;;5065160;28;20450;-76
2022/12/20 03:30:10;;;;;;;8.88;5.00;;;9.60;99.90;;;;;;5065750;28;20038;-76
2022/12/20 03:32:36;;;;;;;7.63;4.90;;;9.60;99.90;;;;;;5061300;28;20041;-77
2022/12/20 03:35:02;;;;;;;6.63;4.90;;;9.60;99.90;;;;;;5099323;27;20062;-76
2022/12/20 03:37:27;;;;;;;7.40;5.55;;;9.60;99.90;;;;;;5056857;28;20480;-76
2022/12/20 03:39:53;;;;;;;8.15;5.43;;;9.50;99.90;;;;;;5062376;28;20056;-76
2022/12/20 03:42:19;;;;;;;7.60;5.25;;;9.50;99.90;;;;;;5065310;28;20036;-77
2022/12/20 03:44:44;;;;;;;7.72;5.13;;;9.50;99.90;;;;;;5061380;28;20496;-75
2022/12/20 03:47:10;;;;;;;8.18;5.35;;;9.50;99.90;;;;;;5062263;28;20041;-76
2022/12/20 03:49:35;;;;;;;8.60;5.80;;;9.50;99.90;;;;;;5071020;28;20499;-77
2022/12/20 03:52:01;;;;;;;11.57;6.13;;;9.50;99.90;;;;;;5064462;28;20954;-76
2022/12/20 03:54:27;;;;;;;8.23;5.40;;;9.40;99.90;;;;;;5069174;28;20044;-75
2022/12/20 03:56:52;;;;;;;6.70;5.57;;;9.40;99.90;;;;;;5064560;28;20059;-76
2022/12/20 03:59:18;;;;;;;7.13;5.80;;;9.40;99.90;;;;;;5088211;28;20477;-76
2022/12/20 04:01:43;;;;;;;7.53;5.80;;;9.40;99.90;;;;;;5079512;28;20708;-76
2022/12/20 04:04:11;;;;;;;7.68;5.78;;;9.30;99.90;;;;;;5098008;28;20051;-74
2022/12/20 04:06:37;;;;;;;8.90;5.82;;;9.40;99.90;;;;;;5067397;28;20112;-77
2022/12/20 04:09:03;;;;;;;9.38;5.50;;;9.30;99.90;;;;;;5086032;28;20145;-77
2022/12/20 04:11:28;;;;;;;9.63;6.38;;;9.40;99.90;;;;;;5083313;28;20573;-77
2022/12/20 04:13:54;;;;;;;6.78;6.03;;;9.40;99.90;;;;;;5085780;28;20039;-77
2022/12/20 04:16:26;;;;;;;9.15;6.72;;;9.40;99.90;;;;;;5084251;28;20490;-78
2022/12/20 04:18:52;;;;;;;8.82;6.10;;;9.40;99.90;;;;;;5067724;28;20051;-77
2022/12/20 04:21:26;;;;;;;8.88;6.40;;;9.40;99.90;;;;;;5085026;28;20051;-77
2022/12/20 04:23:51;;;;;;;8.32;6.40;;;9.40;99.90;;;;;;5065163;28;20036;-77
2022/12/20 04:26:18;;;;;;;9.27;6.90;;;9.30;99.90;;;;;;5065252;28;20750;-77
2022/12/20 04:28:43;;;;;;;8.20;6.32;;;9.30;99.90;;;;;;5086959;28;20134;-77
2022/12/20 04:31:09;;;;;;;9.73;6.70;;;9.30;99.90;;;;;;5083477;28;20167;-77
2022/12/20 04:33:35;;;;;;;7.88;6.70;;;9.30;99.90;;;;;;5067143;28;20071;-77
2022/12/20 04:36:01;;;;;;;9.65;6.80;;;9.30;99.90;;;;;;5066199;28;20043;-77
2022/12/20 04:38:26;;;;;;;8.85;6.72;;;9.30;99.90;;;;;;5067313;28;20047;-77
2022/12/20 04:40:54;;;;;;;9.63;6.80;;;9.30;99.90;;;;;;5066497;28;20145;-76
2022/12/20 04:43:19;;;;;;;8.77;6.80;;;9.40;99.90;;;;;;5070377;28;20051;-76
2022/12/20 04:45:51;;;;;;;8.75;6.10;;;9.40;99.90;;;;;;5070423;28;20036;-77
2022/12/20 04:48:17;;;;;;;9.75;6.60;;;9.40;99.90;;;;;;5086825;28;20115;-76
2022/12/20 04:50:47;;;;;;;9.45;6.13;;;9.40;99.90;;;;;;5089281;28;20060;-77
2022/12/20 04:55:57;;;;;;;7.53;5.93;;;9.40;99.90;;;;;;5085905;28;20048;-76
2022/12/20 04:58:23;;;;;;;10.55;6.03;;;9.40;99.90;;;;;;5090588;28;20510;-77
2022/12/20 05:00:51;;;;;;;8.02;5.90;;;9.50;99.90;;;;;;5084103;28;20513;-76
2022/12/20 05:03:21;;;;;;;7.10;5.72;;;9.40;99.90;;;;;;5083979;28;20036;-76
2022/12/20 05:05:47;;;;;;;7.50;5.50;;;9.40;99.90;;;;;;5072680;28;20101;-77
2022/12/20 05:08:13;;;;;;;7.65;5.57;;;9.50;99.90;;;;;;5071830;28;20040;-77
2022/12/20 05:10:39;;;;;;;8.63;5.65;;;9.50;99.90;;;;;;5090095;28;20035;-76
2022/12/20 05:13:05;;;;;;;6.35;5.25;;;9.50;99.90;;;;;;5071175;28;20510;-77
2022/12/20 05:15:31;;;;;;;9.15;5.65;;;9.50;99.90;;;;;;5072363;28;20170;-76
2022/12/20 05:17:58;;;;;;;8.57;5.63;;;9.60;99.90;;;;;;5083159;28;20470;-77
2022/12/20 05:20:24;;;;;;;;;;;9.60;99.90;;;;;;5090448;28;20079;-76
2022/12/20 05:28:35;;;;;;;7.07;5.07;;;9.60;99.90;;;;;;5076963;28;20051;-76
2022/12/20 05:31:01;;;;;;;6.70;4.50;;;9.60;99.90;;;;;;5085264;28;20049;-76
2022/12/20 05:33:28;;;;;;;6.60;4.80;;;9.70;99.90;;;;;;5085742;28;20365;-76
2022/12/20 05:35:54;;;;;;;5.53;4.70;;;9.70;99.90;;;;;;5069987;28;20430;-76
2022/12/20 05:38:22;;;;;;;6.40;4.50;;;9.70;99.90;;;;;;5089847;28;20069;-77
2022/12/20 05:40:48;;;;;;;6.88;4.70;;;9.70;99.90;;;;;;5070471;28;20047;-77
2022/12/20 05:43:14;;;;;;;6.47;4.43;;;9.80;99.90;;;;;;5087000;28;20039;-76
2022/12/20 05:45:45;;;;;;;7.70;4.93;;;9.80;99.90;;;;;;5068226;28;20040;-77
2022/12/20 05:48:11;;;;;;;7.72;4.93;;;9.70;99.90;;;;;;5088966;28;20040;-77
2022/12/20 05:50:36;;;;;;;7.22;4.80;;;9.90;99.90;;;;;;5068300;28;20044;-76
2022/12/20 05:53:02;;;;;;;8.18;5.57;;;9.90;99.90;;;;;;5065761;28;20068;-76
2022/12/20 05:55:28;;;;;;;7.15;5.00;;;10.00;99.90;;;;;;5071032;28;20044;-76
2022/12/20 05:57:53;;;;;;;8.00;5.78;;;9.90;99.90;;;;;;5066338;28;20083;-77
2022/12/20 06:00:19;;;;;;;9.63;5.75;;;9.90;99.90;;;;;;5084841;28;20835;-76
2022/12/20 06:02:45;;;;;;;7.45;5.25;;;10.00;99.90;;;;;;5065720;28;20042;-75
2022/12/20 06:05:11;;;;;;;6.93;4.80;;;10.00;99.90;;;;;;5084927;28;20036;-77
2022/12/20 06:07:37;;;;;;;8.63;6.32;;;10.00;99.90;;;;;;5070318;28;20403;-77
2022/12/20 06:10:03;;;;;;;8.63;7.13;;;10.00;99.90;;;;;;5069946;28;20042;-76
2022/12/20 06:12:28;;;;;;;8.20;5.30;;;10.00;99.90;;;;;;5085890;28;20119;-76
2022/12/20 06:14:54;;;;;;;8.13;5.57;;;10.00;99.90;;;;;;5085834;28;20046;-77
2022/12/20 06:17:20;;;;;;;6.50;5.35;;;10.00;99.90;;;;;;5070508;28;20043;-77
2022/12/20 06:19:46;;;;;;;6.78;4.95;;;9.90;99.90;;;;;;5086567;28;20540;-76
2022/12/20 06:22:12;;;;;;;6.75;5.22;;;10.00;99.90;;;;;;5065623;28;20040;-77
2022/12/20 06:24:38;;;;;;;7.90;5.22;;;10.00;99.90;;;;;;5102917;27;20078;-77
2022/12/20 06:27:05;;;;;;;7.25;4.88;;;10.00;99.90;;;;;;5067854;28;20422;-76
2022/12/20 06:29:31;;;;;;;8.88;5.43;;;10.00;99.90;;;;;;5101888;28;20043;-76
2022/12/20 06:31:58;;;;;;;6.75;5.13;;;10.00;99.90;;;;;;5067266;28;20039;-76
2022/12/20 06:34:23;;;;;;;8.45;5.32;;;10.00;99.90;;;;;;5089298;28;20040;-77
2022/12/20 06:36:49;;;;;;;6.28;5.18;;;10.00;99.90;;;;;;5084913;28;20048;-76
2022/12/20 06:39:15;;;;;;;6.63;5.05;;;10.00;99.90;;;;;;5068433;28;20212;-76
2022/12/20 06:41:40;;;;;;;6.75;4.70;;;10.10;99.90;;;;;;5084079;28;20051;-75
2022/12/20 06:44:07;;;;;;;7.15;5.10;;;10.10;99.90;;;;;;5084706;28;20630;-74
2022/12/20 06:46:33;;;;;;;8.55;4.95;;;10.10;99.90;;;;;;5084328;28;20032;-74
2022/12/20 06:48:59;;;;;;;9.38;5.00;;;10.10;99.90;;;;;;5086066;28;20082;-74
2022/12/20 06:51:28;;;;;;;8.98;5.38;;;10.10;99.90;;;;;;5068030;28;20052;-74
2022/12/20 06:53:53;;;;;;;7.85;5.05;;;10.10;99.90;;;;;;5067299;28;20044;-74
2022/12/20 06:56:19;;;;;;;11.82;5.60;;;10.10;99.90;;;;;;5087255;28;20055;-73
2022/12/20 06:58:46;;;;;;;9.27;5.55;;;10.00;99.90;;;;;;5085515;28;20044;-74
2022/12/20 07:01:12;;;;;;;7.83;5.60;;;10.00;99.90;;;;;;5078850;28;20495;-74
2022/12/20 07:03:37;;;;;;;8.88;6.05;;;10.00;99.90;;;;;;5084735;28;20309;-74
2022/12/20 07:06:03;;;;;;;8.35;6.18;;;10.00;99.90;;;;;;5067013;28;20619;-73
2022/12/20 07:08:29;;;;;;;7.70;6.38;;;10.00;99.90;;;;;;5090599;28;20040;-74
2022/12/20 07:10:55;;;;;;;8.45;6.20;;;10.00;99.90;;;;;;5066566;28;20044;-74
2022/12/20 07:13:22;;;;;;;9.02;7.07;;;9.90;99.90;;;;;;5084077;28;20044;-73
2022/12/20 07:15:47;;;;;;;7.85;6.15;;;9.90;99.90;;;;;;5085752;28;20089;-74
2022/12/20 07:18:13;;;;;;;9.18;6.57;;;9.90;99.90;;;;;;5079032;28;20040;-74
2022/12/20 07:20:40;;;;;;;8.52;6.53;;;9.90;99.90;;;;;;5082741;28;20123;-74
2022/12/20 07:23:06;;;;;;;10.00;7.30;;;9.90;99.90;;;;;;5085311;28;20920;-74
2022/12/20 07:25:32;;;;;;;7.90;7.10;;;9.90;99.90;;;;;;5085089;28;20074;-74
2022/12/20 07:27:58;;;;;;;9.30;7.43;;;9.90;99.90;;;;;;5073942;28;20043;-74
2022/12/20 07:30:24;;;;;;;11.90;7.85;;;9.90;99.90;;;;;;5064554;28;20043;-74
2022/12/20 07:32:50;;;;;;;9.40;7.63;;;9.90;99.90;;;;;;5079529;28;20047;-74
2022/12/20 07:35:15;;;;;;;11.23;7.60;;;9.90;99.90;;;;;;5067629;28;20063;-74
2022/12/20 07:37:42;;;;;;;9.00;8.10;;;9.90;99.90;;;;;;5067261;28;20047;-74
2022/12/20 07:40:10;;;;;;;11.55;8.43;;;9.90;99.90;;;;;;5060731;28;20044;-73
2022/12/20 07:42:36;;;;;;;9.43;7.90;;;9.90;99.90;;;;;;5082707;28;20519;-74
2022/12/20 07:45:02;;;;;;;12.23;7.82;;;9.90;99.90;;;;;;5075102;28;22173;-74
2022/12/20 07:47:28;;;;;;;12.35;8.38;;;9.90;99.90;;;;;;5081028;28;20035;-74
2022/12/20 07:49:54;;;;;;;9.82;7.72;;;9.90;99.90;;;;;;5084303;28;20076;-74
2022/12/20 07:52:25;;;;;;;10.30;7.57;;;9.90;99.90;;;;;;5062340;28;20090;-76
2022/12/20 07:54:55;;;;;;;8.88;7.38;;;9.90;99.90;;;;;;5079928;28;20036;-73
2022/12/20 07:57:30;;;;;;;11.40;7.20;;;9.90;99.90;;;;;;5101713;27;20040;-72
2022/12/20 07:59:59;;;;;;;11.48;7.13;;;9.90;99.90;;;;;;5081047;28;20440;-76
2022/12/20 08:02:48;;;;;;;10.95;6.65;;;9.90;99.90;;;;;;5094810;28;20032;-75
2022/12/20 08:05:14;;;;;;;9.60;6.78;;;10.00;99.90;;;;;;5056565;28;21950;-79
2022/12/20 08:07:41;;;;;;;7.20;6.20;;;10.00;99.90;;;;;;5084784;28;20104;-80
2022/12/20 08:10:10;;;;;;;10.15;6.53;;;9.90;99.90;;;;;;5087390;28;20411;-81
2022/12/20 08:12:37;;;;;;;8.32;6.40;;;10.00;99.90;;;;;;5085250;28;20483;-83
2022/12/20 08:15:03;;;;;;;9.50;5.97;;;10.00;99.90;;;;;;5083648;28;20433;-79
2022/12/20 08:17:28;;;;;;;6.63;5.40;;;10.00;99.90;;;;;;5079585;28;20040;-77
2022/12/20 08:19:56;;;;;;;10.02;5.53;;;10.00;99.90;;;;;;5061881;28;20039;-77
2022/12/20 08:22:22;;;;;;;8.70;5.63;;;10.00;99.90;;;;;;5060183;28;20052;-78
2022/12/20 08:24:47;;;;;;;7.63;5.40;;;10.00;99.90;;;;;;5081245;28;20047;-77
2022/12/20 08:27:14;;;;;;;11.40;6.75;;;10.10;99.90;;;;;;5059918;28;20176;-75
2022/12/20 08:29:40;;;;;;;18.35;12.80;;;10.10;99.90;;;;;;5085768;28;20044;-76
2022/12/20 08:32:05;;;;;;;7.93;5.80;;;10.10;99.90;;;;;;5087856;28;20051;-75
2022/12/20 08:34:31;;;;;;;8.73;5.40;;;10.10;99.90;;;;;;5069387;28;20069;-75
2022/12/20 08:36:57;;;;;;;8.02;6.07;;;10.10;99.90;;;;;;5086760;28;20480;-75
2022/12/20 08:39:22;;;;;;;8.27;5.65;;;10.20;99.90;;;;;;5087501;28;20180;-75
2022/12/20 08:41:48;;;;;;;7.40;5.70;;;10.20;99.90;;;;;;5063284;28;20039;-80
2022/12/20 08:44:14;;;;;;;8.10;5.28;;;10.20;99.90;;;;;;5052356;28;20044;-79
2022/12/20 08:46:39;;;;;;;9.32;6.25;;;10.20;99.90;;;;;;5070223;28;20055;-79
2022/12/20 08:49:05;;;;;;;6.95;4.72;;;10.20;99.90;;;;;;5087574;28;20206;-78
2022/12/20 08:51:31;;;;;;;7.57;6.07;;;10.20;99.90;;;;;;5088007;28;20415;-78
2022/12/20 08:53:57;;;;;;;7.00;4.78;;;10.20;99.90;;;;;;5068798;28;20039;-79
2022/12/20 08:56:23;;;;;;;6.13;4.32;;;10.20;99.90;;;;;;5066916;28;20127;-79
2022/12/20 08:58:49;;;;;;;7.38;4.28;;;10.30;99.90;;;;;;5068464;28;20048;-78
2022/12/20 09:01:20;;;;;;;6.43;3.90;;;10.30;99.90;;;;;;5066005;28;20099;-75
2022/12/20 09:03:47;;;;;;;7.78;4.22;;;10.30;99.90;;;;;;5065920;28;20534;-79
2022/12/20 09:06:21;;;;;;;7.75;4.28;;;10.30;99.90;;;;;;5069691;28;20048;-79
2022/12/20 09:08:47;;;;;;;8.65;4.57;;;10.30;99.90;;;;;;5064423;28;20047;-74
2022/12/20 09:11:16;;;;;;;7.38;4.55;;;10.40;99.90;;;;;;5085881;28;20048;-76
2022/12/20 09:13:44;;;;;;;8.30;4.88;;;10.40;99.90;;;;;;5066525;28;20044;-75
2022/12/20 09:16:12;;;;;;;7.28;4.93;;;10.40;99.90;;;;;;5076259;28;20392;-78
2022/12/20 09:18:38;;;;;;;7.55;4.80;;;10.40;99.90;;;;;;5064223;28;20502;-78
2022/12/20 09:21:05;;;;;;;7.30;4.65;;;10.40;99.90;;;;;;5082316;28;20048;-78
2022/12/20 09:23:32;;;;;;;6.15;4.25;;;10.40;99.90;;;;;;5066653;28;20028;-73
2022/12/20 09:26:12;;;;;;;6.70;3.97;;;10.50;99.90;;;;;;5068438;28;20126;-74
2022/12/20 09:28:38;;;;;;;8.07;4.57;;;10.50;99.90;;;;;;5104775;28;20546;-74
2022/12/20 09:31:06;;;;;;;6.82;4.22;;;10.50;99.90;;;;;;5088228;28;20150;-75
2022/12/20 09:33:33;;;;;;;7.07;3.90;;;10.50;99.90;;;;;;5072505;28;20055;-76
2022/12/20 09:36:00;;;;;;;7.43;4.10;;;10.50;99.90;;;;;;5090589;28;20044;-75
2022/12/20 09:38:27;;;;;;;5.35;3.83;;;10.50;99.90;;;;;;5090167;28;20040;-75
2022/12/20 09:40:56;;;;;;;6.50;3.80;;;10.50;99.90;;;;;;5107028;28;20052;-75
2022/12/20 09:43:23;;;;;;;9.18;4.00;;;10.50;99.90;;;;;;5087218;28;20046;-75
2022/12/20 09:45:53;;;;;;;7.03;3.92;;;10.60;99.90;;;;;;5070270;28;20039;-75
2022/12/20 09:48:25;;;;;;;6.30;3.92;;;10.60;99.90;;;;;;5090341;28;20051;-75
2022/12/20 09:51:09;;;;;;;6.13;3.90;;;10.50;99.90;;;;;;5090597;28;20106;-76
2022/12/20 09:53:52;;;;;;;7.97;4.10;;;10.50;99.90;;;;;;5088612;28;20056;-76
2022/12/20 09:56:33;;;;;;;6.95;4.25;;;10.50;99.90;;;;;;5090207;28;20055;-75
2022/12/20 09:59:01;;;;;;;6.10;3.90;;;10.50;99.90;;;;;;5069368;28;20558;-75
2022/12/20 10:01:30;;;;;;;5.43;4.00;;;10.50;99.90;;;;;;5090230;28;20488;-77
2022/12/20 10:03:58;;;;;;;8.68;4.53;;;10.50;99.90;;;;;;5089115;28;20473;-77
2022/12/20 10:06:36;;;;;;;9.50;4.72;;;10.50;99.90;;;;;;5066335;28;20484;-75
2022/12/20 10:09:29;;;;;;;10.95;4.65;;;10.40;99.90;;;;;;5067821;28;20044;-74
2022/12/20 10:12:26;;;;;;;9.00;5.32;;;10.50;99.90;;;;;;5089002;28;20099;-76
2022/12/20 10:15:06;;;;;;;10.43;5.85;;;10.40;99.90;;;;;;5070453;28;20051;-81
2022/12/20 10:17:47;;;;;;;8.88;4.93;;;10.40;99.90;;;;;;5069230;28;20066;-77
2022/12/20 10:20:51;;;;;;;8.30;5.20;;;10.40;99.90;;;;;;5074046;28;20039;-76
2022/12/20 10:23:29;;;;;;;8.25;5.47;;;10.30;99.90;;;;;;5086356;28;20395;-74
2022/12/20 10:25:56;;;;;;;10.02;4.93;;;10.30;99.90;;;;;;5070708;28;20436;-77
2022/12/20 10:28:34;;;;;;;7.15;5.38;;;10.30;99.90;;;;;;5086911;28;20040;-78
2022/12/20 10:31:21;;;;;;;9.68;6.15;;;10.20;99.90;;;;;;5081486;28;20052;-76
2022/12/20 10:33:46;;;;;;;8.43;5.60;;;10.20;99.90;;;;;;5066925;28;20520;-75
2022/12/20 10:36:25;;;;;;;7.60;5.85;;;10.20;99.90;;;;;;5088459;28;20044;-78
2022/12/20 10:38:56;;;;;;;7.50;5.68;;;10.20;99.90;;;;;;5085726;28;20127;-76
2022/12/20 10:41:28;;;;;;;10.27;5.60;;;10.10;99.90;;;;;;5085346;28;20044;-77
2022/12/20 10:43:57;;;;;;;9.82;5.75;;;10.10;99.90;;;;;;5102351;28;20388;-73
2022/12/20 10:46:53;;;;;;;7.35;5.63;;;10.10;99.90;;;;;;5078612;28;20094;-72
2022/12/20 10:49:27;;;;;;;10.83;5.50;;;10.10;99.90;;;;;;5084598;28;20055;-73
2022/12/20 10:51:56;;;;;;;9.82;6.13;;;10.10;99.90;;;;;;5069088;28;20087;-73
2022/12/20 10:54:36;;;;;;;8.73;5.50;;;10.10;99.90;;;;;;5085931;28;20070;-72
2022/12/20 10:57:14;;;;;;;8.55;5.47;;;10.10;99.90;;;;;;5061184;28;20051;-71
2022/12/20 11:00:12;;;;;;;7.25;5.60;;;10.10;99.90;;;;;;5086401;28;20051;-75
2022/12/20 11:02:39;;;;;;;10.30;5.55;;;10.10;99.90;;;;;;5070920;28;20048;-74
2022/12/20 11:05:09;;;;;;;8.93;5.50;;;10.10;99.90;;;;;;5087861;28;20570;-74
2022/12/20 11:07:36;;;;;;;8.63;5.68;;;10.10;99.90;;;;;;5087358;28;20051;-78
2022/12/20 11:10:21;;;;;;;8.27;5.50;;;10.10;99.90;;;;;;5064128;28;20040;-75
2022/12/20 11:12:54;;;;;;;10.30;5.22;;;10.10;99.90;;;;;;5064423;28;20104;-79
2022/12/20 11:15:23;;;;;;;8.13;5.50;;;10.10;99.90;;;;;;5060101;28;20051;-78
2022/12/20 11:18:00;;;;;;;8.27;5.78;;;10.10;99.90;;;;;;5068315;28;20174;-79
2022/12/20 11:20:44;;;;;;;;;;;10.10;99.90;;;;;;5088455;28;20075;-78
2022/12/20 11:23:16;;;;;;;8.27;5.47;;;10.10;99.90;;;;;;5101828;28;19935;-78
2022/12/20 11:25:47;;;;;;;7.85;5.22;;;10.10;99.90;;;;;;5083856;28;20095;-81
2022/12/20 11:28:27;;;;;;;9.77;5.32;;;10.10;99.90;;;;;;5084068;28;20040;-79
2022/12/20 11:31:20;;;;;;;8.45;5.18;;;10.20;99.90;;;;;;5084297;28;20078;-81
2022/12/20 11:33:45;;;;;;;8.68;5.60;;;10.20;99.90;;;;;;5073675;28;20044;-75
2022/12/20 11:36:39;;;;;;;8.30;5.25;;;10.20;99.90;;;;;;5069566;28;20048;-78
2022/12/20 11:39:24;;;;;;;7.38;5.13;;;10.20;99.90;;;;;;5083921;28;20047;-76
2022/12/20 11:42:13;;;;;;;9.57;5.80;;;10.20;99.90;;;;;;5048187;28;20056;-76
2022/12/20 11:45:05;;;;;;;9.13;5.60;;;10.20;99.90;;;;;;5068955;28;20056;-75
2022/12/20 11:48:02;;;;;;;8.60;6.68;;;10.20;99.90;;;;;;5029221;28;20505;-75
2022/12/20 11:51:06;;;;;;;7.95;5.57;;;10.20;99.90;;;;;;5084901;28;20040;-77
2022/12/20 11:53:41;;;;;;;7.97;6.30;;;10.20;99.90;;;;;;5066669;28;20406;-77
2022/12/20 11:56:33;;;;;;;7.13;6.43;;;10.20;99.90;;;;;;5086736;28;20490;-75
2022/12/20 11:59:04;;;;;;;7.32;5.78;;;10.20;99.90;;;;;;5085657;28;20032;-75
2022/12/20 12:01:47;;;;;;;9.07;6.28;;;10.20;99.90;;;;;;5085573;28;20047;-77
2022/12/20 12:04:21;;;;;;;7.88;5.85;;;10.10;99.90;;;;;;5055925;28;20180;-76
2022/12/20 12:07:02;;;;;;;9.23;6.53;;;10.10;99.90;;;;;;5082585;28;20535;-76
2022/12/20 12:09:44;;;;;;;9.20;6.30;;;10.10;99.90;;;;;;5074663;28;20043;-78
2022/12/20 12:12:20;;;;;;;8.77;5.90;;;10.10;99.90;;;;;;5067095;28;20062;-76
2022/12/20 12:14:54;;;;;;;10.35;6.75;;;10.10;99.90;;;;;;5066599;28;20043;-74
2022/12/20 12:17:49;;;;;;;8.23;7.13;;;10.10;99.90;;;;;;5066247;28;20056;-76
2022/12/20 12:20:27;;;;;;;22.85;19.63;;;10.10;99.90;;;;;;5066900;28;20040;-77
2022/12/20 12:23:02;;;;;;;29.40;26.20;;;10.10;99.90;;;;;;5067329;28;20052;-77
2022/12/20 12:25:27;;;;;;;25.63;23.02;;;10.10;99.90;;;;;;5086681;28;20050;-77
2022/12/20 12:27:53;;;;;;;31.08;27.75;;;10.10;99.90;;;;;;5067429;28;20039;-77
2022/12/20 12:30:19;;;;;;;27.70;24.85;;;10.10;99.90;;;;;;5068053;28;20558;-76
2022/12/20 12:32:59;;;;;;;26.02;22.08;;;10.10;99.90;;;;;;5064845;28;20054;-80
2022/12/20 12:35:56;;;;;;;25.92;22.23;;;10.10;99.90;;;;;;5072345;28;20051;-81
2022/12/20 12:38:55;;;;;;;16.75;15.05;;;10.10;99.90;;;;;;5079736;28;20472;-82
2022/12/20 12:41:50;;;;;;;14.57;13.07;;;10.10;99.90;;;;;;5089180;28;20044;-88
2022/12/20 12:44:42;;;;;;;14.02;12.23;;;10.10;99.90;;;;;;5084304;28;20044;-79
2022/12/20 12:47:23;;;;;;;20.35;18.23;;;10.10;99.90;;;;;;5085537;28;20127;-80
2022/12/20 12:49:52;;;;;;;12.38;10.32;;;10.10;99.90;;;;;;5086522;28;20044;-80
2022/12/20 12:52:49;;;;;;;12.95;10.13;;;10.10;99.90;;;;;;5084225;28;20119;-78
2022/12/20 12:55:38;;;;;;;12.77;9.20;;;10.10;99.90;;;;;;5083461;28;20182;-79
2022/12/20 12:58:33;;;;;;;11.93;10.65;;;10.20;99.90;;;;;;5086024;28;20534;-76
2022/12/20 13:00:59;;;;;;;18.90;14.27;;;10.10;99.90;;;;;;5068000;28;20466;-77
2022/12/20 13:03:51;;;;;;;40.92;37.03;;;10.10;99.90;;;;;;5071067;28;20055;-77
2022/12/20 13:06:22;;;;;;;47.00;42.50;;;10.10;99.90;;;;;;5062801;28;20147;-77
2022/12/20 13:08:57;;;;;;;32.35;29.08;;;10.10;99.90;;;;;;5092033;28;20116;-82
2022/12/20 13:11:32;;;;;;;27.73;24.83;;;10.10;99.90;;;;;;5069980;28;20531;-76
2022/12/20 13:14:16;;;;;;;32.85;29.27;;;10.10;99.90;;;;;;5082774;28;20431;-76
2022/12/20 13:16:43;;;;;;;17.85;15.27;;;10.10;99.90;;;;;;5090459;28;20048;-77